Flight Track Log - Related Links

Times and Time Zones

All times are in EDT time to prevent confusion due to time zone crossing. See the FDX739 flight status page for this flight to view local times or setup timezone preferences in your user account.

Time Position Orientation Groundspeed Altitude Reporting Facility
EDT Latitude Longitude Course Direction KTS MPH feet Rate Location/Type
Fri 04:50:06 PM 35.0167 -89.9667 180° South 168 193 1,000  Level KMEM
Fri 04:50:30 PM 35.0000 -89.9667 180° South 165 190 1,600 1,714 Climbing KMEM
Fri 04:51:30 PM 34.9500 -89.9500 165° South 236 272 3,400 2,200 Climbing KMEM
Fri 04:52:30 PM 34.9333 -89.8667 104° East 284 327 6,000 2,684 Climbing KMEM
Fri 04:53:24 PM 34.9500 -89.7833 76° East 289 333 8,500 2,458 Climbing KMEM
Fri 04:53:53 PM 34.9744 -89.7464 51° Northeast 299 344 9,400 1,685 Climbing Memphis Center
Fri 04:54:53 PM 35.0178 -89.6447 62° Northeast 342 394 11,000 1,900 Climbing Memphis Center
Fri 04:55:53 PM 35.0672 -89.5275 63° Northeast 374 430 13,200 2,150 Climbing Memphis Center
Fri 04:56:53 PM 35.1225 -89.4075 61° Northeast 385 443 15,300 1,800 Climbing Memphis Center
Fri 04:57:53 PM 35.1717 -89.2928 62° Northeast 406 467 16,800 1,500 Climbing Memphis Center
Fri 04:58:53 PM 35.2308 -89.1572 62° Northeast 438 504 18,300 1,650 Climbing Memphis Center
Fri 04:59:53 PM 35.2942 -89.0189 61° Northeast 456 525 20,100 1,500 Climbing Memphis Center
Fri 05:00:53 PM 35.3636 -88.8753 59° Northeast 473 544 21,300 1,234 Climbing Memphis Center
Fri 05:06:22 PM 35.8360 -88.0270 59° Northeast 575 662 28,100 1,219 Climbing FlightAware ADS-B
Fri 05:07:07 PM 35.9100 -87.9230 49° Northeast 580 667 28,900 1,129 Climbing FlightAware ADS-B
Fri 05:07:47 PM 35.9820 -87.8200 49° Northeast 583 671 29,700 1,200 Climbing FlightAware ADS-B
Fri 05:08:32 PM 36.0640 -87.7010 50° Northeast 585 673 30,600 1,200 Climbing FlightAware ADS-B
Fri 05:09:12 PM 36.1340 -87.6020 49° Northeast 585 673 31,400 1,059 Climbing FlightAware ADS-B
Fri 05:09:57 PM 36.2140 -87.4880 49° Northeast 586 674 32,100 1,059 Climbing FlightAware ADS-B
Fri 05:10:37 PM 36.2850 -87.3860 49° Northeast 583 671 32,900 675 Climbing FlightAware ADS-B
Fri 05:11:17 PM 36.3540 -87.2850 50° Northeast 582 670 33,000 71 Climbing FlightAware ADS-B
Fri 05:12:02 PM 36.4350 -87.1680 49° Northeast 585 673 33,000  Level FlightAware ADS-B
Fri 05:12:42 PM 36.5060 -87.0650 49° Northeast 587 676 33,000 225 Level FlightAware ADS-B
Fri 05:13:22 PM 36.5770 -86.9620 49° Northeast 589 678 33,300 600 Climbing FlightAware ADS-B
Fri 05:14:02 PM 36.6480 -86.8580 50° Northeast 592 681 33,800 565 Climbing FlightAware ADS-B
Fri 05:14:47 PM 36.7250 -86.7440 50° Northeast 598 688 34,100 424 Climbing FlightAware ADS-B
Fri 05:15:27 PM 36.7980 -86.6380 49° Northeast 604 695 34,400 636 Climbing FlightAware ADS-B
Fri 05:15:53 PM 36.8486 -86.5636 50° Northeast 603 694 34,800 750 Climbing FlightAware ADS-B
Fri 05:16:15 PM 36.8879 -86.5055 50° Northeast 598 688 35,000 300 Climbing FlightAware ADS-B
Fri 05:16:33 PM 36.9236 -86.4623 44° Northeast 592 681 35,000  Level FlightAware ADS-B
Fri 05:16:51 PM 36.9615 -86.4241 39° Northeast 590 679 35,000  Level FlightAware ADS-B
Fri 05:17:08 PM 37.0014 -86.3922 33° Northeast 587 676 35,000  Level FlightAware ADS-B
Fri 05:17:39 PM 37.0748 -86.3389 30° Northeast 589 678 35,000  Level FlightAware ADS-B
Fri 05:18:10 PM 37.1467 -86.2850 31° Northeast 589 678 35,000  Level FlightAware ADS-B
Fri 05:19:02 PM 37.2670 -86.1970 30° Northeast 589 678 35,000  Level FlightAware ADS-B
Fri 05:19:42 PM 37.3460 -86.1410 29° Northeast 590 679 35,000  Level FlightAware ADS-B
Fri 05:19:47 PM 37.3752 -86.1181 32° Northeast 590 679 35,000  Level FlightAware ADS-B
Fri 05:20:30 PM 37.4761 -86.0434 30° Northeast 592 681 35,000  Level FlightAware ADS-B
Fri 05:21:00 PM 37.5475 -85.9913 30° Northeast 593 682 35,000  Level FlightAware ADS-B
Fri 05:21:52 PM 37.6630 -85.9070 30° Northeast 593 682 35,000  Level FlightAware ADS-B
Fri 05:22:32 PM 37.7650 -85.8310 30° Northeast 595 685 35,000  Level FlightAware ADS-B
Fri 05:23:12 PM 37.8560 -85.7620 31° Northeast 596 686 35,000  Level FlightAware ADS-B
Fri 05:23:57 PM 37.9640 -85.6820 30° Northeast 597 687 35,000  Level FlightAware ADS-B
Fri 05:24:37 PM 38.0600 -85.6110 30° Northeast 598 688 35,000  Level FlightAware ADS-B
Fri 05:25:22 PM 38.1650 -85.5200 34° Northeast 601 692 35,000 -706 Level FlightAware ADS-B
Fri 05:26:02 PM 38.2540 -85.4360 37° Northeast 602 693 34,000 -1,500 Descending FlightAware ADS-B
Fri 05:26:42 PM 38.3440 -85.3500 37° Northeast 617 710 33,000 -1,412 Descending FlightAware ADS-B
Fri 05:27:27 PM 38.4450 -85.2540 37° Northeast 614 707 32,000 -1,341 Descending FlightAware ADS-B
Fri 05:28:07 PM 38.5330 -85.1700 37° Northeast 599 689 31,100 -1,059 Descending FlightAware ADS-B
Fri 05:28:52 PM 38.6370 -85.0710 37° Northeast 591 680 30,500 -1,553 Descending FlightAware ADS-B
Fri 05:29:32 PM 38.7200 -84.9900 37° Northeast 599 689 28,900 -2,325 Descending FlightAware ADS-B
Fri 05:30:12 PM 38.8100 -84.9030 37° Northeast 593 682 27,400 -2,188 Descending FlightAware ADS-B
Fri 05:30:57 PM 38.9050 -84.8110 37° Northeast 576 663 25,800 -2,047 Descending FlightAware ADS-B
Fri 05:31:37 PM 38.9880 -84.7290 38° Northeast 557 641 24,500 -1,200 Descending FlightAware ADS-B
Fri 05:32:27 PM 39.0700 -84.6150 47° Northeast 541 623 24,000 -300 Descending FlightAware ADS-B
Fri 05:33:17 PM 39.1400 -84.5120 49° Northeast 541 623 24,000  Level FlightAware ADS-B
Fri 05:33:57 PM 39.1950 -84.4290 49° Northeast 541 623 24,000  Level FlightAware ADS-B
Fri 05:34:37 PM 39.2510 -84.3460 49° Northeast 541 623 24,000  Level FlightAware ADS-B
Fri 05:35:17 PM 39.3070 -84.2630 49° Northeast 541 623 24,000  Level FlightAware ADS-B
Fri 05:35:57 PM 39.3630 -84.1800 49° Northeast 541 623 24,000 -3,600 Level FlightAware ADS-B
Fri 05:37:12 PM 39.4220 -83.8690 76° East 494 568 17,100 -3,850 Descending FlightAware ADS-B
Fri 05:37:57 PM 39.4650 -83.7540 64° Northeast 460 529 16,300 -1,440 Descending FlightAware ADS-B
Fri 05:38:52 PM 39.5160 -83.6190 64° Northeast 433 498 14,700 -2,040 Descending FlightAware ADS-B
Fri 05:39:37 PM 39.5550 -83.5170 64° Northeast 418 481 12,900 -2,400 Descending FlightAware ADS-B
Fri 05:40:17 PM 39.5890 -83.4280 64° Northeast 418 481 11,300 -1,280 Descending FlightAware ADS-B
Fri 05:40:52 PM 39.6160 -83.3570 64° Northeast 418 481 11,300  Level FlightAware ADS-B
Fri 05:41:42 PM 39.6520 -83.2610 64° Northeast 418 481 11,300  Level FlightAware ADS-B
Fri 05:42:12 PM 39.6730 -83.2040 64° Northeast 418 481 11,300 -1,472 Level FlightAware ADS-B
Fri 05:42:35 PM 39.7033 -83.1228 64° Northeast 408 470 10,000 -1,355 Descending Indianapolis Center
Fri 05:43:14 PM 39.7242 -83.0458 71° East 380 437 9,900 -492 Descending Indianapolis Center
Fri 05:43:36 PM 39.7372 -82.9967 71° East 329 379 9,500 -1,161 Descending Indianapolis Center
Fri 05:44:16 PM 39.7525 -82.9333 73° East 329 379 8,700 -1,279 Descending Indianapolis Center
Fri 05:44:37 PM 39.7656 -82.8858 70° East 313 360 8,200 -1,645 Descending Indianapolis Center
Fri 05:45:18 PM 39.7900 -82.8347 58° Northeast 312 359 7,000 -2,200 Descending Indianapolis Center
Fri 05:45:37 PM 39.8153 -82.7994 47° Northeast 292 336 6,000 -2,459 Descending Indianapolis Center
Fri 05:46:19 PM 39.8450 -82.7581 47° Northeast 289 333 4,500 -2,557 Descending Indianapolis Center
Fri 05:46:38 PM 39.8683 -82.7264 46° Northeast 271 312 3,400 -1,452 Descending Indianapolis Center
Fri 05:47:21 PM 39.9050 -82.7147 14° North 275 316 3,000 -393 Descending Indianapolis Center
Fri 05:47:39 PM 39.9219 -82.7381 313° West 218 251 3,000  Level Indianapolis Center
Fri 05:48:23 PM 39.9114 -82.7864 254° West 211 243 3,000  Level Indianapolis Center
Fri 05:48:45 PM 39.9025 -82.8092 243° Southwest 182 209 3,000 -677 Level Indianapolis Center
Fri 05:49:25 PM 39.8778 -82.8425 226° Southwest 197 227 2,300 -1,082 Descending Indianapolis Center
Fri 05:49:46 PM 39.8617 -82.8589 218° Southwest 185 213 1,900 -968 Descending Indianapolis Center
Fri 05:50:27 PM 39.8447 -82.8831 228° Southwest 176 203 1,300 -716 Descending Indianapolis Center
Fri 05:50:53 PM 39.8336 -82.8992 228° Southwest 139 160 1,100 -290 Descending Indianapolis Center
Fri 05:51:29 PM 39.8197 -82.9156 222° Southwest 154 177 1,000 -167 Descending Indianapolis Center
Fri 05:53:00 PM 39.8138 -82.9278 252° West  Level Estimated

Login

Don't have an account? Register now (free) for customized features, flight alerts, and more!